createdAt,value
2022-10-05T00:00:02.162Z,7.70
2022-10-05T00:03:54.250Z,8.80
2022-10-05T00:07:26.458Z,8.30
2022-10-05T00:10:54.536Z,8.50
2022-10-05T00:14:28.696Z,8.00
2022-10-05T00:17:57.465Z,8.30
2022-10-05T00:21:28.442Z,7.80
2022-10-05T00:25:14.004Z,7.50
2022-10-05T00:28:45.127Z,7.60
2022-10-05T00:32:16.997Z,7.10
2022-10-05T00:35:45.148Z,7.30
2022-10-05T00:39:13.028Z,7.70
2022-10-05T00:43:02.372Z,7.40
2022-10-05T00:46:37.176Z,7.50
2022-10-05T00:50:40.327Z,7.90
2022-10-05T00:54:30.498Z,7.20
2022-10-05T00:58:14.190Z,7.00
2022-10-05T01:01:52.932Z,7.10
2022-10-05T01:05:35.053Z,6.90
2022-10-05T01:09:16.530Z,7.50
2022-10-05T01:16:30.654Z,7.00
2022-10-05T01:20:16.679Z,8.50
2022-10-05T01:24:10.659Z,8.70
2022-10-05T01:27:52.401Z,8.60
2022-10-05T01:31:28.835Z,10.00
2022-10-05T01:35:08.840Z,6.30
2022-10-05T01:38:44.468Z,6.50
2022-10-05T01:42:24.489Z,6.80
2022-10-05T01:46:00.967Z,6.80
2022-10-05T01:49:38.366Z,7.10
2022-10-05T01:53:14.321Z,7.50
2022-10-05T01:56:48.682Z,5.90
2022-10-05T02:00:18.623Z,6.80
2022-10-05T02:03:51.087Z,7.20
2022-10-05T02:07:23.719Z,6.50
2022-10-05T02:10:55.492Z,6.70
2022-10-05T02:14:28.392Z,7.30
2022-10-05T02:18:01.161Z,6.60
2022-10-05T02:21:28.339Z,6.90
2022-10-05T02:24:59.525Z,7.40
2022-10-05T02:28:35.992Z,7.50
2022-10-05T02:32:11.718Z,7.00
2022-10-05T02:35:38.914Z,8.00
2022-10-05T02:39:15.499Z,7.80
2022-10-05T02:42:57.807Z,8.10
2022-10-05T02:46:36.962Z,8.50
2022-10-05T02:50:13.733Z,8.80
2022-10-05T02:53:53.274Z,8.20
2022-10-05T02:57:30.232Z,8.30
2022-10-05T03:01:06.283Z,8.90
2022-10-05T03:04:42.972Z,8.10
2022-10-05T03:08:18.070Z,8.30
2022-10-05T03:11:53.549Z,7.80
2022-10-05T03:15:38.541Z,7.70
2022-10-05T03:19:21.340Z,7.40
2022-10-05T03:22:55.947Z,7.60
2022-10-05T03:26:36.967Z,7.40
2022-10-05T03:30:07.648Z,8.80
2022-10-05T03:33:44.430Z,7.20
2022-10-05T03:37:19.240Z,7.30
2022-10-05T03:40:56.110Z,8.30
2022-10-05T03:44:33.885Z,8.20
2022-10-05T03:48:07.553Z,7.40
2022-10-05T03:51:41.182Z,9.20
2022-10-05T03:55:18.838Z,8.90
2022-10-05T03:59:07.887Z,9.30
2022-10-05T04:02:41.748Z,9.20
2022-10-05T04:06:15.436Z,8.70
2022-10-05T04:09:58.441Z,8.10
2022-10-05T04:13:31.191Z,7.80
2022-10-05T04:17:04.908Z,7.90
2022-10-05T04:20:37.773Z,7.50
2022-10-05T04:24:17.574Z,7.70
2022-10-05T04:27:49.332Z,7.30
2022-10-05T04:31:30.273Z,7.20
2022-10-05T04:35:10.376Z,7.70
2022-10-05T04:38:59.485Z,7.70
2022-10-05T04:42:36.538Z,7.20
2022-10-05T04:46:19.926Z,7.80
2022-10-05T04:50:02.250Z,7.20
2022-10-05T04:53:36.174Z,7.60
2022-10-05T04:57:11.914Z,7.40
2022-10-05T05:00:50.845Z,8.20
2022-10-05T05:04:38.031Z,7.50
2022-10-05T05:08:19.610Z,8.40
2022-10-05T05:12:02.587Z,8.90
2022-10-05T05:15:42.640Z,8.20
2022-10-05T05:19:24.148Z,8.60
2022-10-05T05:22:55.764Z,9.60
2022-10-05T05:26:33.530Z,8.20
2022-10-05T05:30:10.597Z,8.00
2022-10-05T05:33:51.988Z,8.90
2022-10-05T05:37:31.397Z,8.40
2022-10-05T05:41:08.757Z,6.80
2022-10-05T05:44:42.062Z,7.10
2022-10-05T05:48:20.528Z,6.80
2022-10-05T05:51:53.800Z,7.00
2022-10-05T05:55:29.921Z,7.80
2022-10-05T05:59:05.675Z,7.60
2022-10-05T06:02:39.181Z,7.10
2022-10-05T06:06:11.384Z,7.20
2022-10-05T06:09:43.844Z,7.60
2022-10-05T06:13:25.666Z,7.50
2022-10-05T06:17:00.018Z,6.60
2022-10-05T06:20:34.707Z,6.50
2022-10-05T06:24:07.134Z,7.10
2022-10-05T06:27:40.333Z,7.30
2022-10-05T06:31:21.247Z,7.30
2022-10-05T06:35:07.692Z,8.30
2022-10-05T06:38:55.100Z,7.70
2022-10-05T06:42:36.029Z,8.00
2022-10-05T06:46:18.399Z,8.10
2022-10-05T06:50:05.480Z,11.70
2022-10-05T06:53:52.939Z,7.70
2022-10-05T06:57:42.344Z,6.90
2022-10-05T07:01:16.859Z,7.00
2022-10-05T07:08:30.147Z,6.50
2022-10-05T07:12:08.862Z,6.40
2022-10-05T07:15:49.033Z,5.90
2022-10-05T07:19:36.055Z,5.90
2022-10-05T07:23:22.560Z,5.80
2022-10-05T07:27:00.070Z,6.30
2022-10-05T07:30:30.560Z,6.70
2022-10-05T07:34:19.060Z,7.40
2022-10-05T07:37:57.584Z,6.40
2022-10-05T07:41:40.735Z,6.50
2022-10-05T07:45:17.408Z,5.80
2022-10-05T07:49:03.870Z,5.60
2022-10-05T07:52:39.930Z,5.60
2022-10-05T07:56:16.742Z,5.20
2022-10-05T07:59:51.652Z,5.10
2022-10-05T08:03:31.952Z,4.90
2022-10-05T08:07:06.435Z,5.70
2022-10-05T08:10:42.086Z,4.70
2022-10-05T08:14:21.492Z,5.30
2022-10-05T08:18:01.340Z,6.00
2022-10-05T08:21:40.441Z,5.70
2022-10-05T08:25:21.713Z,6.10
2022-10-05T08:29:02.434Z,5.20
2022-10-05T08:32:37.467Z,5.20
2022-10-05T08:36:12.637Z,4.90
2022-10-05T08:39:42.910Z,4.70
2022-10-05T08:43:35.009Z,4.70
2022-10-05T08:47:17.765Z,5.80
2022-10-05T08:51:03.206Z,6.20
2022-10-05T08:54:51.754Z,5.60
2022-10-05T08:58:36.897Z,5.30
2022-10-05T09:02:29.769Z,5.60
2022-10-05T09:06:23.473Z,5.20
2022-10-05T09:10:37.626Z,5.30
2022-10-05T09:14:33.052Z,4.80
2022-10-05T09:18:44.486Z,4.50
2022-10-05T09:22:23.150Z,4.50
2022-10-05T09:26:01.764Z,4.70
2022-10-05T09:30:05.319Z,4.20
2022-10-05T09:33:59.622Z,4.40
2022-10-05T09:37:37.678Z,4.60
2022-10-05T09:41:36.764Z,4.30
2022-10-05T09:45:43.861Z,4.60
2022-10-05T09:49:28.823Z,4.60
2022-10-05T09:53:25.503Z,4.70
2022-10-05T09:57:18.955Z,5.00
2022-10-05T10:01:09.647Z,4.30
2022-10-05T10:05:02.017Z,5.80
2022-10-05T10:08:44.054Z,5.10
2022-10-05T10:12:26.383Z,4.00
2022-10-05T10:16:20.465Z,3.70
2022-10-05T10:23:55.049Z,4.20
2022-10-05T10:27:37.783Z,3.50
2022-10-05T10:31:28.173Z,4.00
2022-10-05T10:35:24.116Z,3.70
2022-10-05T10:39:02.007Z,3.50
2022-10-05T10:42:42.855Z,3.90
2022-10-05T10:46:21.810Z,3.70
2022-10-05T10:50:12.145Z,3.60
2022-10-05T10:54:16.003Z,4.00
2022-10-05T10:58:16.038Z,4.20
2022-10-05T11:01:51.611Z,4.10
2022-10-05T11:05:33.180Z,4.10
2022-10-05T11:09:37.309Z,3.10
2022-10-05T11:13:30.514Z,3.30
2022-10-05T11:17:23.025Z,3.40
2022-10-05T11:21:17.730Z,3.00
2022-10-05T11:25:02.744Z,2.80
2022-10-05T11:29:20.450Z,2.90
2022-10-05T11:33:25.352Z,3.60
2022-10-05T11:37:41.504Z,3.10
2022-10-05T11:41:34.560Z,3.40
2022-10-05T11:45:29.152Z,2.90
2022-10-05T11:49:17.262Z,2.60
2022-10-05T11:52:49.450Z,3.00
2022-10-05T11:56:25.515Z,3.30
2022-10-05T11:59:59.525Z,3.00
2022-10-05T12:03:43.720Z,2.80
2022-10-05T12:07:23.131Z,2.80
2022-10-05T12:11:05.692Z,2.90
2022-10-05T12:14:42.777Z,2.50
2022-10-05T12:18:17.191Z,2.60
2022-10-05T12:21:49.556Z,2.90
2022-10-05T12:25:25.860Z,2.70
2022-10-05T12:28:57.622Z,2.80
2022-10-05T12:32:28.413Z,2.60
2022-10-05T12:36:03.358Z,2.70
2022-10-05T12:39:42.630Z,2.40
2022-10-05T12:43:18.901Z,2.60
2022-10-05T12:46:55.183Z,3.00
2022-10-05T12:50:29.320Z,2.70
2022-10-05T12:54:03.208Z,3.40
2022-10-05T12:57:40.538Z,2.70
2022-10-05T13:01:23.469Z,2.80
2022-10-05T13:04:59.048Z,2.50
2022-10-05T13:08:34.122Z,2.50
2022-10-05T13:12:06.324Z,3.40
2022-10-05T13:15:39.011Z,2.40
2022-10-05T13:19:22.932Z,3.20
2022-10-05T13:22:58.745Z,2.80
2022-10-05T13:26:33.701Z,3.10
2022-10-05T13:30:05.243Z,3.30
2022-10-05T13:33:49.315Z,5.10
2022-10-05T13:37:25.782Z,7.30
2022-10-05T13:41:04.631Z,5.60
2022-10-05T13:44:37.938Z,5.70
2022-10-05T13:48:18.439Z,5.20
2022-10-05T13:51:53.989Z,3.90
2022-10-05T13:55:39.499Z,3.80
2022-10-05T13:59:16.546Z,3.40
2022-10-05T14:02:52.164Z,3.20
2022-10-05T14:06:31.534Z,3.80
2022-10-05T14:10:01.609Z,3.40
2022-10-05T14:13:35.558Z,3.60
2022-10-05T14:17:04.369Z,3.10
2022-10-05T14:20:34.540Z,3.70
2022-10-05T14:24:42.496Z,5.80
2022-10-05T14:28:34.588Z,5.10
2022-10-05T14:32:16.352Z,3.30
2022-10-05T14:39:42.517Z,3.40
2022-10-05T14:43:22.628Z,3.40
2022-10-05T14:46:58.997Z,4.10
2022-10-05T14:50:30.999Z,3.90
2022-10-05T14:54:04.460Z,3.30
2022-10-05T14:57:41.502Z,3.50
2022-10-05T15:01:23.607Z,3.60
2022-10-05T15:05:02.501Z,3.20
2022-10-05T15:08:48.379Z,3.90
2022-10-05T15:12:22.923Z,3.20
2022-10-05T15:15:54.910Z,3.30
2022-10-05T15:19:25.805Z,3.60
2022-10-05T15:23:01.180Z,3.90
2022-10-05T15:26:41.799Z,3.80
2022-10-05T15:30:15.665Z,4.50
2022-10-05T15:33:51.165Z,8.90
2022-10-05T15:37:24.984Z,6.00
2022-10-05T15:41:01.517Z,5.60
2022-10-05T15:44:38.097Z,4.50
2022-10-05T15:48:09.389Z,4.70
2022-10-05T15:51:50.393Z,6.40
2022-10-05T15:55:32.487Z,8.90
2022-10-05T15:59:08.800Z,6.00
2022-10-05T16:02:47.787Z,5.60
2022-10-05T16:06:42.587Z,5.80
2022-10-05T16:10:17.545Z,4.60
2022-10-05T16:13:51.728Z,4.40
2022-10-05T16:17:35.034Z,5.90
2022-10-05T16:21:11.423Z,5.90
2022-10-05T16:25:01.943Z,5.30
2022-10-05T16:28:40.834Z,17.60
2022-10-05T16:32:17.871Z,10.50
2022-10-05T16:35:54.427Z,12.60
2022-10-05T16:39:40.543Z,14.30
2022-10-05T16:43:22.077Z,22.70
2022-10-05T16:46:56.808Z,23.60
2022-10-05T16:50:31.675Z,27.60
2022-10-05T16:54:11.886Z,36.00
2022-10-05T17:01:54.142Z,35.20
2022-10-05T17:05:38.813Z,39.50
2022-10-05T17:09:39.981Z,47.70
2022-10-05T17:13:22.605Z,49.80
2022-10-05T17:17:07.161Z,43.70
2022-10-05T17:20:49.477Z,41.60
2022-10-05T17:24:36.079Z,36.00
2022-10-05T17:28:23.781Z,34.30
2022-10-05T17:32:33.723Z,31.50
2022-10-05T17:36:19.187Z,29.80
2022-10-05T17:39:59.862Z,25.70
2022-10-05T17:43:38.762Z,25.20
2022-10-05T17:47:24.318Z,34.90
2022-10-05T17:51:15.462Z,34.70
2022-10-05T17:55:30.721Z,34.80
2022-10-05T17:59:03.703Z,34.50
2022-10-05T18:02:45.833Z,32.10
2022-10-05T18:06:42.660Z,30.80
2022-10-05T18:10:41.039Z,25.50
2022-10-05T18:14:21.234Z,23.60
2022-10-05T18:17:53.324Z,22.20
2022-10-05T18:21:33.687Z,19.40
2022-10-05T18:25:08.148Z,17.40
2022-10-05T18:28:49.032Z,15.90
2022-10-05T18:32:28.953Z,14.30
2022-10-05T18:36:11.644Z,13.00
2022-10-05T18:40:05.759Z,12.40
2022-10-05T18:43:41.294Z,11.30
2022-10-05T18:47:19.483Z,11.40
2022-10-05T18:51:00.041Z,12.40
2022-10-05T18:54:56.067Z,12.70
2022-10-05T18:58:35.686Z,15.10
2022-10-05T19:02:16.441Z,16.80
2022-10-05T19:05:50.693Z,17.20
2022-10-05T19:09:32.676Z,18.50
2022-10-05T19:13:13.603Z,16.10
2022-10-05T19:20:34.955Z,14.60
2022-10-05T19:24:21.485Z,14.90
2022-10-05T19:28:11.711Z,13.70
2022-10-05T19:31:51.616Z,14.10
2022-10-05T19:35:37.053Z,13.40
2022-10-05T19:39:19.386Z,12.00
2022-10-05T19:43:33.305Z,11.40
2022-10-05T19:47:10.218Z,10.80
2022-10-05T19:50:40.612Z,10.90
2022-10-05T19:54:25.119Z,12.60
2022-10-05T19:57:57.453Z,10.00
2022-10-05T20:01:44.735Z,9.90
2022-10-05T20:05:23.279Z,10.80
2022-10-05T20:09:23.690Z,9.60
2022-10-05T20:13:04.300Z,9.90
2022-10-05T20:17:01.261Z,9.00
2022-10-05T20:20:47.023Z,8.80
2022-10-05T20:24:29.869Z,9.10
2022-10-05T20:28:00.078Z,10.60
2022-10-05T20:31:33.748Z,10.80
2022-10-05T20:35:03.846Z,9.90
2022-10-05T20:38:40.651Z,10.60
2022-10-05T20:42:18.169Z,11.10
2022-10-05T20:45:53.044Z,11.20
2022-10-05T20:49:28.850Z,11.30
2022-10-05T20:52:58.266Z,11.50
2022-10-05T20:56:33.602Z,12.40
2022-10-05T21:00:06.039Z,11.30
2022-10-05T21:03:35.394Z,11.80
2022-10-05T21:07:04.611Z,11.60
2022-10-05T21:10:33.509Z,11.30
2022-10-05T21:14:05.549Z,11.50
2022-10-05T21:17:36.624Z,10.90
2022-10-05T21:21:07.875Z,10.70
2022-10-05T21:24:42.604Z,10.10
2022-10-05T21:28:10.462Z,9.00
2022-10-05T21:31:39.252Z,8.40
2022-10-05T21:35:09.703Z,8.40
2022-10-05T21:38:37.311Z,8.40
2022-10-05T21:42:06.848Z,7.80
2022-10-05T21:45:35.486Z,8.60
2022-10-05T21:49:03.774Z,8.30
2022-10-05T21:52:35.769Z,8.30
2022-10-05T21:56:11.737Z,8.00
2022-10-05T21:59:39.118Z,8.20
2022-10-05T22:03:08.147Z,8.00
2022-10-05T22:06:36.791Z,8.40
2022-10-05T22:10:06.111Z,8.30
2022-10-05T22:13:43.698Z,7.90
2022-10-05T22:17:17.885Z,7.70
2022-10-05T22:20:45.204Z,8.20
2022-10-05T22:24:13.432Z,8.40
2022-10-05T22:27:40.430Z,9.30
2022-10-05T22:31:11.069Z,7.80
2022-10-05T22:34:42.586Z,7.90
2022-10-05T22:38:11.671Z,8.00
2022-10-05T22:41:38.828Z,7.80
2022-10-05T22:45:09.061Z,8.80
2022-10-05T22:48:35.976Z,8.10
2022-10-05T22:52:02.661Z,8.90
2022-10-05T22:55:29.811Z,8.40
2022-10-05T22:58:56.969Z,8.10
2022-10-05T23:02:27.411Z,7.30
2022-10-05T23:06:03.848Z,7.60
2022-10-05T23:09:32.626Z,7.00
2022-10-05T23:13:01.300Z,7.70
2022-10-05T23:16:30.737Z,8.40
2022-10-05T23:19:58.118Z,8.30
2022-10-05T23:23:25.769Z,7.60
2022-10-05T23:26:54.008Z,8.50
2022-10-05T23:30:25.319Z,8.10
2022-10-05T23:33:52.607Z,9.70
2022-10-05T23:37:23.761Z,9.50
2022-10-05T23:40:52.860Z,8.90
2022-10-05T23:44:23.184Z,7.20
2022-10-05T23:47:52.398Z,7.80
2022-10-05T23:51:19.519Z,7.30
2022-10-05T23:54:46.267Z,7.50
2022-10-05T23:58:15.633Z,7.80
